createdAt,value
2023-03-23T16:00:42.332Z,3.60
2023-03-23T16:05:46.682Z,3.70
2023-03-23T16:10:49.640Z,4.30
2023-03-23T16:15:52.486Z,3.70
2023-03-23T16:20:55.726Z,3.50
2023-03-23T16:25:58.544Z,3.50
2023-03-23T16:31:01.449Z,3.70
2023-03-23T16:36:05.303Z,3.30
2023-03-23T16:41:10.989Z,3.10
2023-03-23T16:46:14.445Z,3.80
2023-03-23T16:51:17.357Z,3.20
2023-03-23T16:56:20.373Z,4.60
2023-03-23T17:01:23.501Z,9.60
2023-03-23T17:06:26.372Z,14.20
2023-03-23T17:11:29.413Z,8.00
2023-03-23T17:16:33.146Z,7.00
2023-03-23T17:21:37.002Z,5.10
2023-03-23T17:26:39.798Z,5.00
2023-03-23T17:31:43.179Z,4.90
2023-03-23T17:36:46.740Z,4.90
2023-03-23T17:41:49.564Z,4.70
2023-03-23T17:46:52.687Z,5.00
2023-03-23T17:51:57.349Z,5.80
2023-03-23T17:57:04.272Z,5.60
2023-03-23T18:02:07.622Z,5.30
2023-03-23T18:07:11.016Z,5.20
2023-03-23T18:12:13.808Z,5.60
2023-03-23T18:17:16.588Z,5.80
2023-03-23T18:22:19.440Z,6.30
2023-03-23T18:27:22.775Z,7.60
2023-03-23T18:32:26.644Z,5.80
2023-03-23T18:37:29.469Z,6.40
2023-03-23T18:42:32.549Z,6.20
2023-03-23T18:47:37.818Z,6.40
2023-03-23T18:52:40.710Z,6.20
2023-03-23T18:57:43.835Z,6.20
2023-03-23T19:02:51.885Z,6.20
2023-03-23T19:07:56.185Z,6.00
2023-03-23T19:12:58.961Z,6.00
2023-03-23T19:18:01.762Z,6.70
2023-03-23T19:23:04.611Z,5.80
2023-03-23T19:33:13.930Z,5.50
2023-03-23T19:38:17.830Z,6.00
2023-03-23T19:43:21.350Z,6.20
2023-03-23T19:48:25.828Z,6.80
2023-03-23T19:53:28.692Z,5.30
2023-03-23T19:58:33.041Z,5.20
2023-03-23T20:03:36.932Z,5.40
2023-03-23T20:08:45.703Z,4.10
2023-03-23T20:13:50.902Z,4.60
2023-03-23T20:18:54.425Z,4.10
2023-03-23T20:23:58.748Z,3.80
2023-03-23T20:29:02.581Z,3.50
2023-03-23T20:34:08.663Z,2.90
2023-03-23T20:39:23.306Z,2.30
2023-03-23T20:44:31.102Z,2.10
2023-03-23T20:49:37.271Z,2.60
2023-03-23T20:54:41.242Z,3.30
2023-03-23T20:59:44.176Z,3.30
2023-03-23T21:04:48.966Z,2.40
2023-03-23T21:09:51.758Z,2.40
2023-03-23T21:14:54.584Z,2.50
2023-03-23T21:19:57.397Z,2.80
2023-03-23T21:25:00.490Z,3.30
2023-03-23T21:30:05.592Z,3.70
2023-03-23T21:35:10.674Z,3.80
2023-03-23T21:40:16.908Z,3.70
2023-03-23T21:45:21.143Z,3.60
2023-03-23T21:50:24.478Z,3.50
2023-03-23T21:55:29.734Z,3.20
2023-03-23T22:00:32.657Z,2.90
2023-03-23T22:05:40.028Z,3.00
2023-03-23T22:11:00.510Z,3.40
2023-03-23T22:16:08.154Z,3.50
2023-03-23T22:21:12.577Z,3.10
2023-03-23T22:26:16.750Z,3.60
2023-03-23T22:31:24.516Z,3.80
2023-03-23T22:36:28.996Z,3.80
2023-03-23T22:41:35.567Z,3.50
2023-03-23T22:46:39.239Z,3.40
2023-03-23T22:51:42.434Z,3.00
2023-03-23T22:56:45.620Z,2.70
2023-03-23T23:01:48.456Z,3.20
2023-03-23T23:06:57.450Z,3.10
2023-03-23T23:12:06.770Z,3.20
2023-03-23T23:17:10.718Z,3.30
2023-03-23T23:22:18.872Z,2.60
2023-03-23T23:27:22.599Z,2.50
2023-03-23T23:32:25.817Z,2.50
2023-03-23T23:37:28.628Z,1.70
2023-03-23T23:42:32.213Z,2.40
2023-03-23T23:47:35.013Z,2.40
2023-03-23T23:52:39.006Z,2.60
2023-03-23T23:57:43.716Z,2.70
